Time;durP1;ratioP1;P1;durP2;ratioP2;P2;SDS_P1;SDS_P2;PMS_P1;PMS_P2;Temp;Humidity;BMP_temperature;BMP_pressure;BME280_temperature;BME280_humidity;BME280_pressure;Samples;Min_cycle;Max_cycle;Signal;HPM_P1;HPM_P2
2022/01/10 00:01:53;;;;;;;21.05;8.73;;;;;;;2.89;100.00;101066.84;10099833;29;20501;-76
2022/01/10 00:06:54;;;;;;;14.82;8.43;;;;;;;2.89;100.00;101064.16;10099679;29;20041;-77
2022/01/10 00:11:54;;;;;;;20.92;8.77;;;;;;;2.76;100.00;101079.66;10097794;29;20077;-77
2022/01/10 00:16:54;;;;;;;11.80;7.57;;;;;;;2.66;100.00;101084.19;10081087;29;20470;-76
2022/01/10 00:21:55;;;;;;;20.77;9.13;;;;;;;2.54;100.00;101097.69;10097059;29;20061;-77
2022/01/10 00:26:56;;;;;;;18.05;7.32;;;;;;;2.43;100.00;101097.00;10098241;29;20049;-76
2022/01/10 00:31:59;;;;;;;21.02;8.88;;;;;;;2.42;100.00;101098.78;10097363;29;20036;-77
2022/01/10 00:36:59;;;;;;;13.32;7.35;;;;;;;2.38;100.00;101123.28;10097110;29;20072;-76
2022/01/10 00:42:00;;;;;;;10.65;7.78;;;;;;;2.33;100.00;101113.03;10097446;29;20390;-76
2022/01/10 00:47:00;;;;;;;21.45;8.70;;;;;;;2.37;100.00;101125.13;10096768;29;20084;-77
2022/01/10 00:52:00;;;;;;;20.60;8.57;;;;;;;2.50;100.00;101140.88;10096662;29;20037;-76
2022/01/10 00:57:01;;;;;;;22.75;7.70;;;;;;;2.76;100.00;101144.69;10079325;29;20481;-77
2022/01/10 01:02:02;;;;;;;29.80;9.30;;;;;;;3.03;100.00;101154.69;10060354;29;1093855;-76
2022/01/10 01:07:02;;;;;;;19.70;8.75;;;;;;;3.07;100.00;101173.97;10097042;29;20044;-76
2022/01/10 01:12:37;;;;;;;18.13;10.20;;;;;;;3.04;100.00;101174.25;10097613;29;20037;-76
2022/01/10 01:27:52;;;;;;;23.38;7.50;;;;;;;2.87;100.00;101178.50;10097097;29;20045;-75
2022/01/10 01:32:52;;;;;;;17.50;8.00;;;;;;;2.84;100.00;101194.81;10095430;29;20040;-75
2022/01/10 01:37:53;;;;;;;18.27;9.10;;;;;;;2.80;100.00;101188.88;10097019;29;20037;-75
2022/01/10 01:42:53;;;;;;;21.27;9.02;;;;;;;2.85;100.00;101203.69;10097570;29;20037;-76
2022/01/10 01:47:54;;;;;;;22.00;10.30;;;;;;;2.88;100.00;101200.72;10095652;29;20040;-75
2022/01/10 01:52:55;;;;;;;27.00;9.57;;;;;;;2.80;100.00;101206.75;10083291;29;20461;-75
2022/01/10 01:57:55;;;;;;;25.10;10.93;;;;;;;2.78;100.00;101224.78;10104439;29;20041;-75
2022/01/10 02:02:56;;;;;;;13.35;10.60;;;;;;;2.74;100.00;101231.38;10103439;29;20466;-76
2022/01/10 02:07:56;;;;;;;27.65;10.68;;;;;;;2.62;100.00;101252.06;10087162;29;20156;-76
2022/01/10 02:12:56;;;;;;;24.13;11.50;;;;;;;2.71;100.00;101259.25;10103872;29;20052;-75
2022/01/10 02:17:59;;;;;;;22.48;11.93;;;;;;;2.85;100.00;101260.69;10104591;29;20040;-75
2022/01/10 02:23:00;;;;;;;22.05;11.85;;;;;;;2.99;100.00;101252.25;10105990;29;20048;-75
2022/01/10 02:28:00;;;;;;;16.10;12.02;;;;;;;3.17;100.00;101270.28;10088621;29;20037;-75
2022/01/10 02:33:01;;;;;;;21.60;11.00;;;;;;;3.25;100.00;101282.00;10086421;29;20076;-75
2022/01/10 02:38:02;;;;;;;28.85;15.43;;;;;;;3.37;100.00;101319.31;10102842;29;20089;-75
2022/01/10 02:43:06;;;;;;;28.88;13.15;;;;;;;3.43;100.00;101316.09;10102118;29;20033;-76
2022/01/10 02:48:06;;;;;;;19.83;12.15;;;;;;;3.53;100.00;101316.91;10085467;29;20044;-75
2022/01/10 02:53:07;;;;;;;34.65;15.55;;;;;;;3.58;100.00;101329.91;10103104;29;20037;-76
2022/01/10 02:58:07;;;;;;;18.58;11.77;;;;;;;3.63;100.00;101333.81;10101611;29;20627;-75
2022/01/10 03:03:07;;;;;;;23.23;14.35;;;;;;;3.68;100.00;101344.97;10102565;29;20057;-76
2022/01/10 03:08:08;;;;;;;19.42;14.35;;;;;;;3.71;100.00;101342.00;10086101;29;20044;-75
2022/01/10 03:13:09;;;;;;;27.08;15.60;;;;;;;3.77;100.00;101351.31;10101618;29;20127;-75
2022/01/10 03:18:09;;;;;;;25.90;14.40;;;;;;;3.80;100.00;101353.72;10085835;29;20065;-75
2022/01/10 03:23:09;;;;;;;19.38;13.88;;;;;;;3.82;100.00;101366.94;10101243;29;20041;-76
2022/01/10 03:28:13;;;;;;;20.95;14.65;;;;;;;3.85;100.00;101380.91;10099670;29;20196;-75
2022/01/10 03:33:14;;;;;;;28.55;15.90;;;;;;;3.87;100.00;101400.38;10100223;29;20041;-76
2022/01/10 03:38:15;;;;;;;33.00;14.90;;;;;;;3.90;100.00;101402.75;10100607;29;20097;-75
2022/01/10 03:43:15;;;;;;;28.00;14.93;;;;;;;3.90;100.00;101400.09;10101114;29;20557;-76
2022/01/10 03:48:15;;;;;;;20.73;14.30;;;;;;;3.89;100.00;101418.97;10083560;29;20096;-76
2022/01/10 03:53:16;;;;;;;26.25;14.70;;;;;;;3.87;100.00;101432.53;10099551;29;20512;-76
2022/01/10 03:58:16;;;;;;;19.75;14.35;;;;;;;3.83;100.00;101428.44;10100829;29;20072;-75
2022/01/10 04:03:17;;;;;;;23.75;15.60;;;;;;;3.81;100.00;101430.41;10082751;29;20053;-75
2022/01/10 04:08:17;;;;;;;25.58;15.57;;;;;;;3.82;100.00;101432.06;10097805;29;20033;-76
2022/01/10 04:13:18;;;;;;;28.13;15.70;;;;;;;3.86;100.00;101444.22;10098213;29;20096;-76
2022/01/10 04:18:18;;;;;;;15.10;13.35;;;;;;;3.90;100.00;101451.00;10098813;29;20033;-76
2022/01/10 04:23:19;;;;;;;40.70;14.98;;;;;;;3.89;100.00;101453.78;10082347;29;20037;-75
2022/01/10 04:28:19;;;;;;;36.00;15.80;;;;;;;3.96;100.00;101463.84;10082063;29;20033;-75
2022/01/10 04:33:20;;;;;;;27.00;13.93;;;;;;;4.06;100.00;101481.75;10098220;29;20041;-74
2022/01/10 04:38:21;;;;;;;21.58;13.85;;;;;;;4.09;100.00;101487.66;10099181;29;20044;-75
2022/01/10 04:43:21;;;;;;;23.83;13.07;;;;;;;4.12;100.00;101492.75;10084691;29;20500;-75
2022/01/10 04:48:22;;;;;;;19.63;13.98;;;;;;;4.12;100.00;101508.00;10081209;29;20032;-75
2022/01/10 04:53:22;;;;;;;30.08;13.27;;;;;;;4.10;100.00;101515.31;10099155;29;20041;-75
2022/01/10 04:58:23;;;;;;;16.92;11.73;;;;;;;4.08;100.00;101525.31;10097184;29;20500;-75
2022/01/10 05:03:23;;;;;;;24.33;13.60;;;;;;;4.05;100.00;101545.22;10098100;29;20139;-75
2022/01/10 05:08:24;;;;;;;26.25;14.00;;;;;;;3.89;100.00;101545.75;10098497;29;20488;-75
2022/01/10 05:13:24;;;;;;;34.92;15.40;;;;;;;3.75;100.00;101556.84;10080905;29;20037;-75
2022/01/10 05:18:25;;;;;;;17.15;13.25;;;;;;;3.66;100.00;101555.84;10097224;29;20037;-75
2022/01/10 05:23:25;;;;;;;27.70;14.90;;;;;;;3.61;100.00;101562.59;10080943;29;20371;-75
2022/01/10 05:28:26;;;;;;;32.13;16.63;;;;;;;3.62;100.00;101581.19;10097136;29;20466;-75
2022/01/10 05:33:26;;;;;;;22.98;15.32;;;;;;;3.59;100.00;101581.47;10097032;29;20045;-75
2022/01/10 05:38:27;;;;;;;25.75;15.43;;;;;;;3.60;100.00;101587.66;10080913;29;20037;-74
2022/01/10 05:43:27;;;;;;;32.53;18.48;;;;;;;3.70;100.00;101605.50;10097305;29;20041;-75
2022/01/10 05:48:30;;;;;;;28.00;16.40;;;;;;;3.83;100.00;101613.28;10096595;29;20029;-75
2022/01/10 05:53:31;;;;;;;25.75;16.98;;;;;;;3.92;100.00;101625.88;10097671;29;20044;-75
2022/01/10 05:58:31;;;;;;;25.13;15.73;;;;;;;3.97;100.00;101628.97;10078962;29;20107;-74
2022/01/10 06:03:31;;;;;;;29.48;16.58;;;;;;;4.02;100.00;101628.59;10095477;29;20060;-75
2022/01/10 06:08:32;;;;;;;30.67;17.73;;;;;;;4.05;100.00;101641.72;10095971;29;20498;-75
2022/01/10 06:13:32;;;;;;;18.45;15.75;;;;;;;4.11;100.00;101656.38;10095983;29;20113;-75
2022/01/10 06:18:33;;;;;;;22.42;14.98;;;;;;;4.14;100.00;101654.25;9933923;29;20057;-76
2022/01/10 06:23:33;;;;;;;29.67;16.85;;;;;;;4.23;100.00;101666.00;10096289;29;20041;-76
2022/01/10 06:28:33;;;;;;;27.35;15.52;;;;;;;4.24;100.00;101678.41;10096617;29;20072;-76
2022/01/10 06:33:34;;;;;;;25.33;15.05;;;;;;;4.29;100.00;101697.63;10095818;29;20041;-76
2022/01/10 06:38:35;;;;;;;29.63;15.32;;;;;;;4.29;100.00;101700.31;10096010;29;20053;-76
2022/01/10 06:43:37;;;;;;;33.45;16.77;;;;;;;4.30;100.00;101714.56;10101905;29;20041;-77
2022/01/10 06:48:38;;;;;;;26.92;17.13;;;;;;;4.25;100.00;101720.34;10086899;29;20029;-77
2022/01/10 06:53:38;;;;;;;37.08;16.95;;;;;;;4.23;100.00;101724.97;10085663;29;20520;-77
2022/01/10 06:58:38;;;;;;;24.15;16.85;;;;;;;4.19;100.00;101745.00;10103518;29;20029;-76
2022/01/10 07:03:39;;;;;;;20.23;14.55;;;;;;;4.20;100.00;101768.16;10104450;29;20053;-76
2022/01/10 07:08:39;;;;;;;23.30;14.52;;;;;;;4.22;100.00;101763.50;10084724;29;20037;-77
2022/01/10 07:13:40;;;;;;;24.98;16.65;;;;;;;4.23;100.00;101781.28;10099551;29;20496;-77
2022/01/10 07:18:40;;;;;;;30.25;15.93;;;;;;;4.27;100.00;101795.25;10101327;29;20092;-77
2022/01/10 07:23:40;;;;;;;24.25;15.65;;;;;;;4.33;100.00;101814.34;10102113;29;20049;-77
2022/01/10 07:28:41;;;;;;;20.83;15.35;;;;;;;4.36;100.00;101819.44;10100655;29;20041;-76
2022/01/10 07:33:41;;;;;;;22.45;16.98;;;;;;;4.41;100.00;101836.00;10115332;29;20048;-77
2022/01/10 07:38:42;;;;;;;30.55;16.13;;;;;;;4.46;100.00;101845.44;10100177;29;20033;-77
2022/01/10 07:43:42;;;;;;;34.33;18.88;;;;;;;4.45;100.00;101857.16;10099834;29;20566;-77
2022/01/10 07:48:44;;;;;;;22.77;16.27;;;;;;;4.53;100.00;101870.75;10098892;29;20053;-77
2022/01/10 07:53:44;;;;;;;32.78;17.38;;;;;;;4.53;100.00;101877.00;10101109;29;20048;-77
2022/01/10 07:58:48;;;;;;;24.83;16.75;;;;;;;4.58;100.00;101881.94;10083667;29;20043;-77
2022/01/10 08:03:52;;;;;;;26.20;17.65;;;;;;;4.60;100.00;101894.22;10082721;29;20144;-77
2022/01/10 08:08:52;;;;;;;25.17;18.35;;;;;;;4.65;100.00;101902.72;10098902;29;20041;-77
2022/01/10 08:13:52;;;;;;;21.00;16.40;;;;;;;4.66;100.00;101899.06;10099776;29;20041;-77
2022/01/10 08:18:53;;;;;;;23.85;17.88;;;;;;;4.69;100.00;101919.41;10082093;29;20311;-77
2022/01/10 08:23:53;;;;;;;37.38;18.65;;;;;;;4.69;100.00;101934.63;10097794;29;20044;-77
2022/01/10 08:28:54;;;;;;;30.25;20.90;;;;;;;4.69;100.00;101938.19;10098352;29;20470;-76
2022/01/10 08:33:54;;;;;;;26.90;19.48;;;;;;;4.75;100.00;101947.53;10098436;29;20041;-76
2022/01/10 08:38:55;;;;;;;27.42;19.58;;;;;;;4.71;100.00;101954.16;10097749;29;20045;-77
2022/01/10 08:43:55;;;;;;;25.13;18.73;;;;;;;4.66;100.00;101970.66;10097428;29;20056;-77
2022/01/10 08:48:56;;;;;;;41.97;18.25;;;;;;;4.70;100.00;101977.44;10081638;29;20461;-77
2022/01/10 08:53:56;;;;;;;30.98;20.13;;;;;;;4.80;100.00;101972.13;10096732;29;20518;-76
2022/01/10 08:58:57;;;;;;;32.42;21.17;;;;;;;4.84;100.00;101973.56;10098439;29;20045;-77
2022/01/10 09:03:57;;;;;;;28.10;18.42;;;;;;;4.85;100.00;101985.97;10099171;29;20080;-77
2022/01/10 09:08:57;;;;;;;26.83;19.23;;;;;;;4.93;100.00;101993.38;10097043;29;20047;-77
2022/01/10 09:13:58;;;;;;;26.70;19.02;;;;;;;5.05;100.00;102008.44;10097291;29;20037;-77
2022/01/10 09:18:58;;;;;;;24.88;19.50;;;;;;;5.17;100.00;102015.41;10100647;29;20139;-77
2022/01/10 09:23:59;;;;;;;35.53;20.50;;;;;;;5.19;100.00;102013.41;10097039;29;20037;-77
2022/01/10 09:28:59;;;;;;;38.80;19.40;;;;;;;5.24;100.00;102026.47;10094997;29;20119;-76
2022/01/10 09:34:00;;;;;;;40.08;19.73;;;;;;;5.36;100.00;102030.75;10096755;29;20040;-76
2022/01/10 09:39:02;;;;;;;28.92;19.90;;;;;;;5.49;100.00;102038.56;10096120;29;20465;-76
2022/01/10 09:44:04;;;;;;;32.42;21.95;;;;;;;5.52;100.00;102049.03;10079751;29;20063;-76
2022/01/10 09:49:05;;;;;;;29.98;22.13;;;;;;;5.58;100.00;102056.53;10079742;29;20045;-76
2022/01/10 09:54:05;;;;;;;33.80;19.20;;;;;;;5.55;100.00;102064.88;10096237;29;20045;-76
2022/01/10 09:59:06;;;;;;;44.60;18.27;;;;;;;5.51;100.00;102082.25;10097769;29;20045;-76
2022/01/10 10:04:06;;;;;;;21.88;17.10;;;;;;;5.57;100.00;102103.22;10096434;29;20076;-77
2022/01/10 10:09:08;;;;;;;27.55;16.95;;;;;;;5.56;100.00;102102.38;10079469;29;20128;-76
2022/01/10 10:14:09;;;;;;;31.13;17.98;;;;;;;5.63;100.00;102116.09;10099173;29;20481;-77
2022/01/10 10:19:09;;;;;;;36.55;20.13;;;;;;;5.68;100.00;102121.94;10086794;29;20033;-77
2022/01/10 10:24:10;;;;;;;30.30;20.88;;;;;;;5.71;100.00;102128.84;10103451;29;20105;-77
2022/01/10 10:29:13;;;;;;;36.45;17.98;;;;;;;5.75;100.00;102138.38;10103019;29;20065;-76
2022/01/10 10:34:21;;;;;;;27.92;18.77;;;;;;;5.88;100.00;102146.19;10102394;29;20102;-77
2022/01/10 10:39:22;;;;;;;22.20;17.73;;;;;;;6.06;100.00;102158.00;10103944;29;20037;-77
2022/01/10 10:44:23;;;;;;;24.60;17.98;;;;;;;6.16;100.00;102158.03;10085600;29;20040;-77
2022/01/10 10:49:36;;;;;;;28.30;17.65;;;;;;;6.36;100.00;102167.03;10101999;29;20041;-77
2022/01/10 10:54:37;;;;;;;32.92;18.27;;;;;;;6.52;100.00;102178.94;10086146;29;20452;-77
2022/01/10 10:59:43;;;;;;;26.48;17.90;;;;;;;6.63;100.00;102180.63;10100688;29;20181;-77
2022/01/10 11:04:44;;;;;;;;;;;;;;;6.60;100.00;102188.16;10101905;29;20524;-76
2022/01/10 11:09:44;;;;;;;31.95;16.45;;;;;;;6.69;100.00;102193.53;10101523;29;19926;-77
2022/01/10 11:14:44;;;;;;;39.75;18.15;;;;;;;6.80;100.00;102203.34;10101302;29;20733;-77
2022/01/10 11:20:10;;;;;;;24.75;16.58;;;;;;;6.96;100.00;102200.94;10084657;29;20038;-77
2022/01/10 11:25:26;;;;;;;27.92;14.10;;;;;;;7.09;100.00;102208.72;10100626;29;20035;-76
2022/01/10 11:30:44;;;;;;;37.05;18.63;;;;;;;7.09;100.00;102214.13;10104859;29;20052;-77
2022/01/10 11:35:49;;;;;;;24.08;15.40;;;;;;;6.92;100.00;102222.88;10103144;29;20060;-77
2022/01/10 11:41:06;;;;;;;27.23;15.43;;;;;;;6.94;100.00;102229.00;10101116;29;20076;-77
2022/01/10 11:46:12;;;;;;;51.88;18.08;;;;;;;6.91;100.00;102246.28;10101670;29;20048;-77
2022/01/10 11:51:20;;;;;;;19.10;14.38;;;;;;;6.91;100.00;102248.97;10085150;29;20029;-77
2022/01/10 11:56:26;;;;;;;17.08;13.43;;;;;;;6.87;100.00;102254.78;10101477;29;20029;-77
2022/01/10 12:01:32;;;;;;;29.63;14.57;;;;;;;6.84;100.00;102255.91;10100006;29;20061;-77
2022/01/10 12:06:32;;;;;;;22.60;14.10;;;;;;;6.82;100.00;102267.81;10114569;29;20049;-77
2022/01/10 12:11:33;;;;;;;19.55;11.45;;;;;;;6.90;100.00;102270.66;10114614;29;20492;-77
2022/01/10 12:16:34;;;;;;;22.27;13.52;;;;;;;6.83;100.00;102275.75;10099357;29;20125;-78
2022/01/10 12:21:34;;;;;;;22.38;13.95;;;;;;;6.93;100.00;102294.63;10113587;29;20119;-78
2022/01/10 12:26:35;;;;;;;29.15;14.23;;;;;;;6.99;100.00;102288.69;10097598;29;20071;-77
2022/01/10 12:31:36;;;;;;;18.15;12.70;;;;;;;6.96;100.00;102291.66;10081766;29;20128;-77
2022/01/10 12:36:37;;;;;;;11.98;10.75;;;;;;;7.06;100.00;102297.06;10112051;29;20504;-77
2022/01/10 12:41:38;;;;;;;18.30;11.85;;;;;;;7.15;100.00;102307.84;10112190;29;20422;-78
2022/01/10 12:46:38;;;;;;;20.30;10.90;;;;;;;7.19;100.00;102321.88;10097620;29;20045;-77
2022/01/10 12:51:43;;;;;;;26.27;11.15;;;;;;;7.17;100.00;102330.06;10112079;29;20033;-77
2022/01/10 12:56:44;;;;;;;22.13;11.93;;;;;;;7.19;100.00;102324.56;10113113;29;20156;-78
2022/01/10 13:01:44;;;;;;;18.85;11.15;;;;;;;7.23;100.00;102334.91;10097136;29;20053;-77
2022/01/10 13:06:45;;;;;;;15.52;10.13;;;;;;;7.35;100.00;102337.47;10097447;29;20099;-78
2022/01/10 13:11:48;;;;;;;30.30;12.23;;;;;;;7.40;100.00;102352.25;10097947;29;20535;-78
2022/01/10 13:16:57;;;;;;;20.17;10.63;;;;;;;7.43;100.00;102354.66;10096354;29;20068;-78
2022/01/10 13:22:05;;;;;;;13.23;9.63;;;;;;;7.40;100.00;102354.94;10098423;29;20122;-78
2022/01/10 13:27:08;;;;;;;23.63;10.70;;;;;;;7.41;100.00;102363.88;10112587;29;20060;-78
2022/01/10 13:32:24;;;;;;;16.98;11.23;;;;;;;7.36;100.00;102364.28;10111301;29;20040;-78
2022/01/10 13:37:36;;;;;;;18.08;10.50;;;;;;;7.34;100.00;102360.00;10096986;29;20363;-78
2022/01/10 13:42:38;;;;;;;20.65;10.07;;;;;;;7.25;100.00;102360.88;10099329;29;20108;-78
2022/01/10 13:47:55;;;;;;;33.67;11.30;;;;;;;7.45;100.00;102373.38;10099904;29;20053;-78
2022/01/10 13:53:06;;;;;;;19.58;9.88;;;;;;;7.39;100.00;102374.78;10105598;29;20488;-78
2022/01/10 13:58:21;;;;;;;22.67;10.70;;;;;;;7.25;100.00;102375.19;10105183;29;20120;-78
2022/01/10 14:03:27;;;;;;;19.23;12.93;;;;;;;7.21;100.00;102376.44;10106411;29;20069;-79
2022/01/10 14:08:28;;;;;;;28.43;12.13;;;;;;;7.19;100.00;102391.91;10118502;29;20041;-78
2022/01/10 14:13:29;;;;;;;22.33;14.60;;;;;;;7.22;100.00;102388.94;10102156;29;20037;-78
2022/01/10 14:18:29;;;;;;;30.73;14.77;;;;;;;6.91;100.00;102391.69;10104861;29;20040;-78
2022/01/10 14:23:30;;;;;;;30.77;13.43;;;;;;;6.82;100.00;102405.13;10103712;29;20044;-78
2022/01/10 14:28:30;;;;;;;35.55;15.35;;;;;;;6.72;100.00;102421.25;10103417;29;20151;-78
2022/01/10 14:33:30;;;;;;;25.23;16.63;;;;;;;6.73;100.00;102418.44;10103297;29;20037;-79
2022/01/10 14:38:31;;;;;;;28.83;16.55;;;;;;;6.75;100.00;102427.19;10103468;29;20545;-78
2022/01/10 14:43:31;;;;;;;24.70;15.48;;;;;;;6.76;100.00;102433.44;10104928;29;20124;-78
2022/01/10 14:48:32;;;;;;;25.25;14.93;;;;;;;6.78;100.00;102438.69;10106196;29;20040;-78
2022/01/10 14:53:39;;;;;;;26.17;16.13;;;;;;;6.74;100.00;102441.66;10111641;29;20060;-78
2022/01/10 14:58:39;;;;;;;;;;;;;;;6.51;100.00;102449.06;10158213;29;20033;-78
2022/01/10 15:03:39;;;;;;;26.95;18.10;;;;;;;6.40;100.00;102456.34;10123414;29;20002;-78
2022/01/10 15:08:41;;;;;;;33.13;16.27;;;;;;;6.13;100.00;102471.19;10102435;29;20037;-79
2022/01/10 15:13:44;;;;;;;24.90;14.05;;;;;;;5.82;100.00;102478.22;10117159;29;20422;-78
2022/01/10 15:18:45;;;;;;;21.52;13.18;;;;;;;5.70;100.00;102490.84;10101751;29;20476;-79
2022/01/10 15:23:49;;;;;;;30.63;15.35;;;;;;;5.51;100.00;102496.03;10101554;29;20128;-78
2022/01/10 15:28:49;;;;;;;36.83;16.13;;;;;;;5.37;100.00;102505.22;10102824;29;20350;-78
2022/01/10 15:33:50;;;;;;;24.85;16.25;;;;;;;5.17;100.00;102508.63;10115914;29;20037;-78
2022/01/10 15:38:51;;;;;;;28.17;15.35;;;;;;;5.02;100.00;102508.03;10099531;29;20473;-78
2022/01/10 15:43:52;;;;;;;31.90;15.27;;;;;;;4.92;100.00;102526.72;10101012;29;20489;-78
2022/01/10 15:48:53;;;;;;;27.02;16.40;;;;;;;4.76;100.00;102527.06;10114747;29;20037;-78
2022/01/10 15:53:53;;;;;;;32.75;16.15;;;;;;;4.59;100.00;102531.03;10103396;29;20048;-78
2022/01/10 15:58:54;;;;;;;31.00;17.55;;;;;;;4.47;100.00;102549.88;10114877;29;20036;-78
2022/01/10 16:03:54;;;;;;;20.45;16.45;;;;;;;4.30;100.00;102552.03;10114973;29;20064;-78
2022/01/10 16:08:54;;;;;;;23.58;15.00;;;;;;;4.18;100.00;102552.97;10099034;29;20047;-78
2022/01/10 16:13:55;;;;;;;21.73;15.18;;;;;;;4.06;100.00;102567.28;10115032;29;20080;-79
2022/01/10 16:18:55;;;;;;;27.73;15.95;;;;;;;3.95;100.00;102582.31;10099445;29;20420;-78
2022/01/10 16:23:56;;;;;;;22.88;15.68;;;;;;;3.85;100.00;102592.00;10100199;29;20065;-78
2022/01/10 16:28:56;;;;;;;43.42;18.83;;;;;;;3.79;100.00;102594.28;10113337;29;20131;-79
2022/01/10 16:33:57;;;;;;;30.65;17.48;;;;;;;3.63;100.00;102624.84;10098317;29;20060;-79
2022/01/10 16:38:57;;;;;;;40.53;20.08;;;;;;;3.53;100.00;102623.81;10097615;29;20131;-78
2022/01/10 16:43:58;;;;;;;34.42;19.10;;;;;;;3.36;100.00;102640.22;10099359;29;20069;-78
2022/01/10 16:48:58;;;;;;;33.85;19.15;;;;;;;3.29;100.00;102646.94;10112505;29;20069;-78
2022/01/10 16:53:59;;;;;;;32.80;17.45;;;;;;;3.21;100.00;102659.06;10097794;29;20048;-78
2022/01/10 16:59:00;;;;;;;30.85;18.10;;;;;;;3.08;100.00;102668.91;10095748;29;20394;-78
2022/01/10 17:04:00;;;;;;;29.55;19.33;;;;;;;2.96;100.00;102675.09;10095862;29;20116;-78
2022/01/10 17:09:00;;;;;;;35.63;20.92;;;;;;;2.89;100.00;102674.66;10096719;29;20427;-78
2022/01/10 17:14:01;;;;;;;36.47;21.95;;;;;;;2.88;100.00;102689.00;10096505;29;20603;-78
2022/01/10 17:19:01;;;;;;;36.35;23.90;;;;;;;2.84;100.00;102684.81;10096788;29;20093;-78
2022/01/10 17:24:02;;;;;;;44.75;23.45;;;;;;;2.81;100.00;102706.44;10080002;29;20042;-78
2022/01/10 17:29:02;;;;;;;48.80;24.70;;;;;;;2.72;100.00;102710.56;10096108;29;20039;-78
2022/01/10 17:34:03;;;;;;;40.40;25.13;;;;;;;2.67;100.00;102719.84;10080674;29;20072;-78
2022/01/10 17:39:04;;;;;;;39.83;25.40;;;;;;;2.56;100.00;102724.09;10097722;29;20470;-77
2022/01/10 17:44:04;;;;;;;50.90;25.27;;;;;;;2.52;100.00;102727.94;10112251;29;20029;-78
2022/01/10 17:49:13;;;;;;;42.55;27.23;;;;;;;2.52;100.00;102746.66;10097083;29;20037;-78
2022/01/10 17:54:15;;;;;;;42.33;26.10;;;;;;;2.36;100.00;102739.69;10095922;29;20477;-78
2022/01/10 17:59:15;;;;;;;42.25;25.73;;;;;;;2.25;100.00;102756.44;10112085;29;20044;-77
2022/01/10 18:04:15;;;;;;;65.03;36.85;;;;;;;2.19;100.00;102759.50;10095267;29;20068;-78
2022/01/10 18:09:16;;;;;;;81.95;39.78;;;;;;;2.23;100.00;102769.88;10103265;29;20046;-78
2022/01/10 18:14:18;;;;;;;81.13;38.78;;;;;;;2.33;100.00;102780.88;10091894;29;20061;-77
2022/01/10 18:19:18;;;;;;;77.40;39.10;;;;;;;2.34;100.00;102795.97;10103679;29;20041;-78
2022/01/10 18:24:19;;;;;;;72.90;37.55;;;;;;;2.39;100.00;102787.63;10095410;29;20329;-78
2022/01/10 18:29:19;;;;;;;95.60;45.03;;;;;;;2.43;100.00;102805.22;10110103;29;20128;-78
2022/01/10 18:34:19;;;;;;;93.85;52.47;;;;;;;2.42;100.00;102806.16;10097734;29;20048;-78
2022/01/10 18:39:20;;;;;;;90.88;51.55;;;;;;;2.42;100.00;102809.69;10103448;29;20473;-77
2022/01/10 18:44:21;;;;;;;102.63;50.75;;;;;;;2.51;100.00;102818.94;10103113;29;20033;-78
2022/01/10 18:49:21;;;;;;;89.03;50.03;;;;;;;2.47;100.00;102823.63;10101908;29;20037;-78
2022/01/10 18:54:22;;;;;;;124.38;56.10;;;;;;;2.45;100.00;102830.88;10102197;29;20097;-78
2022/01/10 18:59:22;;;;;;;76.88;38.67;;;;;;;2.37;100.00;102833.19;10102225;29;20068;-78
2022/01/10 19:04:23;;;;;;;130.48;58.05;;;;;;;2.42;100.00;102825.72;10101168;29;20064;-78
2022/01/10 19:09:23;;;;;;;106.90;46.65;;;;;;;2.43;100.00;102830.13;10102033;29;20529;-78
2022/01/10 19:14:23;;;;;;;133.85;55.42;;;;;;;2.30;100.00;102834.53;10102570;29;20505;-78
2022/01/10 19:19:24;;;;;;;118.97;55.15;;;;;;;2.29;100.00;102833.66;10102863;29;20037;-78
2022/01/10 19:24:24;;;;;;;100.32;54.63;;;;;;;2.22;100.00;102839.50;10102843;29;20442;-78
2022/01/10 19:29:25;;;;;;;94.03;48.70;;;;;;;2.11;100.00;102850.88;10099932;29;20129;-78
2022/01/10 19:34:25;;;;;;;85.72;51.13;;;;;;;2.09;100.00;102858.09;10102421;29;20361;-78
2022/01/10 19:39:25;;;;;;;80.47;44.33;;;;;;;1.92;100.00;102859.16;10100895;29;20048;-78
2022/01/10 19:44:26;;;;;;;86.80;50.67;;;;;;;1.93;100.00;102857.31;10100404;29;20119;-76
2022/01/10 19:49:26;;;;;;;99.40;51.83;;;;;;;2.01;100.00;102855.91;10100823;29;20507;-78
2022/01/10 19:54:26;;;;;;;88.60;50.70;;;;;;;2.04;100.00;102860.19;10098665;29;20116;-81
2022/01/10 19:59:27;;;;;;;98.63;53.38;;;;;;;2.04;100.00;102862.84;10113915;29;20044;-78
2022/01/10 20:04:27;;;;;;;58.70;36.63;;;;;;;2.02;100.00;102870.13;10100579;29;20144;-79
2022/01/10 20:09:28;;;;;;;47.33;30.20;;;;;;;1.89;100.00;102870.00;10100157;29;20047;-79
2022/01/10 20:14:28;;;;;;;45.40;27.77;;;;;;;1.68;100.00;102876.63;10100894;29;20037;-79
2022/01/10 20:19:29;;;;;;;41.45;26.48;;;;;;;1.57;100.00;102880.81;10099075;29;20096;-78
2022/01/10 20:24:29;;;;;;;53.53;27.25;;;;;;;1.51;100.00;102886.50;10110994;29;20095;-80
2022/01/10 20:29:31;;;;;;;35.67;23.80;;;;;;;1.49;100.00;102898.22;10127856;29;20040;-75
2022/01/10 20:34:32;;;;;;;37.92;24.00;;;;;;;1.41;100.00;102890.66;10104508;29;20077;-77
2022/01/10 20:39:33;;;;;;;38.30;21.45;;;;;;;1.25;100.00;102906.69;10112561;29;20047;-76
2022/01/10 20:44:34;;;;;;;32.67;20.33;;;;;;;1.05;100.00;102905.13;10099678;29;20465;-79
2022/01/10 20:49:34;;;;;;;27.17;18.67;;;;;;;0.96;100.00;102905.69;10098564;29;20029;-75
2022/01/10 20:54:35;;;;;;;32.15;19.15;;;;;;;0.92;100.00;102899.63;10099502;29;20056;-79
2022/01/10 20:59:38;;;;;;;45.53;25.95;;;;;;;1.00;100.00;102895.69;10113690;29;20065;-79
2022/01/10 21:04:40;;;;;;;37.50;24.35;;;;;;;0.90;100.00;102908.69;10096957;29;20167;-77
2022/01/10 21:09:41;;;;;;;28.45;21.45;;;;;;;0.76;100.00;102916.56;10098694;29;20041;-78
2022/01/10 21:14:41;;;;;;;32.90;23.33;;;;;;;0.61;100.00;102912.94;10096903;29;20041;-77
2022/01/10 21:19:42;;;;;;;35.95;22.85;;;;;;;0.58;100.00;102924.63;10111940;29;20040;-77
2022/01/10 21:24:42;;;;;;;37.47;24.52;;;;;;;0.76;100.00;102930.75;10112004;29;20069;-78
2022/01/10 21:29:42;;;;;;;45.25;28.25;;;;;;;0.77;100.00;102934.31;10096517;29;20381;-77
2022/01/10 21:34:43;;;;;;;38.40;23.23;;;;;;;0.79;100.00;102946.59;10098130;29;20036;-77
2022/01/10 21:39:43;;;;;;;45.20;25.35;;;;;;;0.79;100.00;102943.94;10111768;29;20048;-81
2022/01/10 21:44:44;;;;;;;34.67;19.23;;;;;;;0.87;100.00;102962.19;10097743;29;20037;-76
2022/01/10 21:49:44;;;;;;;58.75;31.40;;;;;;;0.80;100.00;102974.13;10096304;29;20484;-76
2022/01/10 21:54:44;;;;;;;37.42;25.77;;;;;;;0.81;100.00;102986.53;10097855;29;20045;-77
2022/01/10 21:59:45;;;;;;;36.78;23.60;;;;;;;0.91;100.00;102988.59;10097328;29;20037;-76
2022/01/10 22:04:45;;;;;;;40.00;26.67;;;;;;;0.93;100.00;102983.19;10110798;29;20084;-76
2022/01/10 22:09:46;;;;;;;61.42;28.98;;;;;;;0.91;100.00;102990.41;10115675;29;20112;-78
2022/01/10 22:14:47;;;;;;;59.60;31.40;;;;;;;0.92;100.00;102984.13;10104889;29;20082;-78
2022/01/10 22:19:47;;;;;;;67.05;34.10;;;;;;;0.85;100.00;102985.41;10102923;29;20044;-78
2022/01/10 22:24:47;;;;;;;61.15;32.05;;;;;;;0.88;100.00;102977.25;10118295;29;20432;-78
2022/01/10 22:29:48;;;;;;;44.97;22.15;;;;;;;0.86;100.00;102979.13;10104924;29;20037;-77
2022/01/10 22:34:48;;;;;;;35.63;23.58;;;;;;;0.75;100.00;102976.19;10087292;29;20498;-78
2022/01/10 22:39:49;;;;;;;49.05;25.05;;;;;;;0.73;100.00;102986.91;10105189;29;20093;-77
2022/01/10 22:44:49;;;;;;;53.90;29.92;;;;;;;0.69;100.00;102993.38;10111285;29;20398;-78